Time;durP1;ratioP1;P1;durP2;ratioP2;P2;SDS_P1;SDS_P2;PMS_P1;PMS_P2;Temp;Humidity;BMP_temperature;BMP_pressure;BME280_temperature;BME280_humidity;BME280_pressure;Samples;Min_cycle;Max_cycle;Signal;HPM_P1;HPM_P2
2022/05/15 00:02:13;;;;;;;;;;;;;;;15.50;50.47;98285.84;5160270;27;19941;-57
2022/05/15 00:04:42;;;;;;;;;;;;;;;15.43;50.58;98282.81;5151089;27;20278;-59
2022/05/15 00:07:10;;;;;;;;;;;;;;;15.49;50.39;98284.19;5153862;27;19979;-59
2022/05/15 00:09:38;;;;;;;;;;;;;;;15.44;50.66;98289.88;5167191;27;19919;-59
2022/05/15 00:12:08;;;;;;;;;;;;;;;15.26;51.85;98282.94;5163102;27;19951;-59
2022/05/15 00:14:36;;;;;;;;;;;;;;;15.40;51.45;98278.00;5146379;27;20254;-60
2022/05/15 00:17:04;;;;;;;;;;;;;;;15.11;51.79;98285.13;5116354;27;19948;-59
2022/05/15 00:19:32;;;;;;;;;;;;;;;15.16;51.87;98284.94;5137530;27;19919;-60
2022/05/15 00:22:00;;;;;;;;;;;;;;;15.17;51.97;98285.72;5154357;27;19919;-59
2022/05/15 00:24:29;;;;;;;;;;;;;;;15.26;51.71;98288.41;5147178;27;19931;-60
2022/05/15 00:26:57;;;;;;;;;;;;;;;15.18;51.97;98285.41;5150414;27;19926;-59
2022/05/15 00:29:29;;;;;;;;;;;;;;;15.12;51.79;98286.72;5143499;27;19973;-58
2022/05/15 00:31:57;;;;;;;;;;;;;;;15.18;51.65;98282.69;5135981;27;19935;-60
2022/05/15 00:34:26;;;;;;;;;;;;;;;15.15;51.99;98277.84;5146368;27;19923;-58
2022/05/15 00:36:54;;;;;;;;;;;;;;;15.17;51.54;98281.06;5132982;27;20359;-60
2022/05/15 00:39:47;;;;;;;;;;;;;;;15.20;51.76;98282.34;5152084;27;19927;-59
2022/05/15 00:42:15;;;;;;;;;;;;;;;15.03;52.02;98285.19;5150981;27;19922;-60
2022/05/15 00:44:45;;;;;;;;;;;;;;;15.03;51.79;98280.53;5146320;27;19931;-60
2022/05/15 00:47:14;;;;;;;;;;;;;;;14.99;52.12;98282.31;5143831;27;19984;-60
2022/05/15 00:49:42;;;;;;;;;;;;;;;14.98;52.21;98279.91;5124954;27;20017;-60
2022/05/15 00:52:11;;;;;;;;;;;;;;;14.96;52.13;98279.41;5135198;27;20026;-59
2022/05/15 00:54:40;;;;;;;;;;;;;;;14.71;52.38;98283.91;5153099;27;20033;-61
2022/05/15 00:57:09;;;;;;;;;;;;;;;14.74;52.27;98278.56;5136902;27;19926;-57
2022/05/15 01:00:03;;;;;;;;;;;;;;;14.67;52.61;98279.09;5124699;27;20019;-59
2022/05/15 01:02:35;;;;;;;;;;;;;;;14.57;52.86;98274.00;5126574;27;20553;-60
2022/05/15 01:05:03;;;;;;;;;;;;;;;14.57;53.06;98279.44;5145268;27;19923;-59
2022/05/15 01:07:32;;;;;;;;;;;;;;;14.62;53.18;98278.47;5151338;27;19927;-59
2022/05/15 01:10:00;;;;;;;;;;;;;;;14.78;52.29;98273.25;5123302;27;19958;-59
2022/05/15 01:12:31;;;;;;;;;;;;;;;14.73;52.48;98282.44;5144241;27;19983;-59
2022/05/15 01:14:59;;;;;;;;;;;;;;;14.70;52.30;98276.81;5126742;27;19919;-59
2022/05/15 01:17:29;;;;;;;;;;;;;;;14.56;53.08;98277.84;5143464;27;19927;-60
2022/05/15 01:20:02;;;;;;;;;;;;;;;14.64;53.03;98279.72;5123596;27;19970;-60
2022/05/15 01:22:32;;;;;;;;;;;;;;;14.65;52.68;98273.16;5119556;27;19941;-60
2022/05/15 01:25:01;;;;;;;;;;;;;;;14.58;52.55;98267.38;5125630;27;19954;-60
2022/05/15 01:27:30;;;;;;;;;;;;;;;14.37;53.39;98274.69;5137215;27;20358;-59
2022/05/15 01:29:58;;;;;;;;;;;;;;;14.22;53.64;98272.47;5140914;27;19963;-59
2022/05/15 01:32:26;;;;;;;;;;;;;;;14.26;53.25;98267.97;5153892;27;19969;-60
2022/05/15 01:34:54;;;;;;;;;;;;;;;14.18;53.65;98275.06;5130345;27;19983;-60
2022/05/15 01:37:23;;;;;;;;;;;;;;;14.06;53.92;98264.00;5161759;27;19933;-55
2022/05/15 01:39:58;;;;;;;;;;;;;;;14.28;53.08;98268.47;5133212;27;19922;-60
2022/05/15 01:42:27;;;;;;;;;;;;;;;14.29;53.32;98273.59;5117926;27;19923;-59
2022/05/15 01:44:55;;;;;;;;;;;;;;;14.30;53.31;98268.91;5107149;27;19919;-60
2022/05/15 01:47:23;;;;;;;;;;;;;;;14.22;53.36;98272.47;5141766;27;19927;-58
2022/05/15 01:49:54;;;;;;;;;;;;;;;14.27;53.22;98273.09;5152176;27;20317;-60
2022/05/15 01:52:22;;;;;;;;;;;;;;;14.18;53.15;98266.88;5157028;27;19987;-56
2022/05/15 01:54:51;;;;;;;;;;;;;;;14.24;53.21;98276.50;5134437;27;19919;-60
2022/05/15 01:57:44;;;;;;;;;;;;;;;14.25;53.33;98278.09;5124431;27;19927;-58
2022/05/15 02:00:15;;;;;;;;;;;;;;;14.19;53.54;98267.66;5133236;27;19962;-59
2022/05/15 02:02:46;;;;;;;;;;;;;;;14.27;53.33;98275.03;5118788;27;19926;-58
2022/05/15 02:05:30;;;;;;;;;;;;;;;14.16;53.27;98275.38;5108379;27;19919;-59
2022/05/15 02:07:59;;;;;;;;;;;;;;;14.13;53.51;98281.50;5147376;27;20025;-59
2022/05/15 02:10:31;;;;;;;;;;;;;;;13.95;54.05;98274.47;5097861;27;19919;-59
2022/05/15 02:13:00;;;;;;;;;;;;;;;13.94;54.05;98272.88;5128325;27;19961;-60
2022/05/15 02:15:29;;;;;;;;;;;;;;;13.98;54.03;98268.38;5134177;27;19919;-60
2022/05/15 02:17:58;;;;;;;;;;;;;;;13.94;53.83;98275.59;5124467;27;20298;-59
2022/05/15 02:20:27;;;;;;;;;;;;;;;13.96;53.90;98273.34;5134562;27;20336;-59
2022/05/15 02:22:55;;;;;;;;;;;;;;;14.00;53.45;98268.84;5141566;27;19923;-58
2022/05/15 02:25:23;;;;;;;;;;;;;;;13.87;54.11;98264.38;5134932;27;19923;-59
2022/05/15 02:27:51;;;;;;;;;;;;;;;13.94;53.89;98272.88;5136981;27;20225;-59
2022/05/15 02:30:20;;;;;;;;;;;;;;;13.91;53.69;98261.81;5152366;27;19980;-59
2022/05/15 02:32:50;;;;;;;;;;;;;;;13.87;53.84;98273.38;5119997;27;20010;-60
2022/05/15 02:35:18;;;;;;;;;;;;;;;13.91;53.91;98270.00;5140684;27;20266;-60
2022/05/15 02:37:47;;;;;;;;;;;;;;;13.86;54.17;98266.31;5150325;27;20266;-58
2022/05/15 02:40:16;;;;;;;;;;;;;;;13.85;54.49;98263.91;5126893;27;19971;-59
2022/05/15 02:42:45;;;;;;;;;;;;;;;13.95;53.83;98262.72;5139623;27;20017;-59
2022/05/15 02:45:39;;;;;;;;;;;;;;;13.88;53.72;98269.50;5132818;27;19918;-59
2022/05/15 02:51:03;;;;;;;;;;;;;;;13.88;53.72;98271.44;5115071;27;19919;-60
2022/05/15 02:51:15;;;;;;;;;;;;;;;13.83;53.98;98271.59;5123867;27;19920;-58
2022/05/15 02:53:44;;;;;;;;;;;;;;;13.87;54.12;98275.28;5140425;27;20367;-60
2022/05/15 02:56:13;;;;;;;;;;;;;;;13.93;53.98;98279.47;5113165;27;20367;-60
2022/05/15 02:58:41;;;;;;;;;;;;;;;14.03;53.28;98276.38;5136913;27;19938;-60
2022/05/15 03:01:10;;;;;;;;;;;;;;;14.03;53.33;98270.13;5156421;27;19948;-60
2022/05/15 03:03:39;;;;;;;;;;;;;;;14.01;53.69;98281.38;5128303;27;19961;-60
2022/05/15 03:06:07;;;;;;;;;;;;;;;13.74;54.11;98274.38;5154796;27;19926;-59
2022/05/15 03:08:36;;;;;;;;;;;;;;;13.79;53.77;98276.09;5143047;27;19919;-60
2022/05/15 03:11:05;;;;;;;;;;;;;;;13.80;53.85;98272.25;5139144;27;20064;-56
2022/05/15 03:16:49;;;;;;;;;;;;;;;13.78;54.32;98269.03;5157745;27;20018;-61
2022/05/15 03:19:24;;;;;;;;;;;;;;;13.88;53.78;98274.97;5153495;27;19922;-56
2022/05/15 03:21:52;;;;;;;;;;;;;;;13.76;53.99;98265.84;5156616;27;19992;-56
2022/05/15 03:24:21;;;;;;;;;;;;;;;13.74;53.97;98273.53;5154239;27;20366;-60
2022/05/15 03:26:49;;;;;;;;;;;;;;;13.61;54.25;98265.19;5145785;27;19926;-60
2022/05/15 03:29:18;;;;;;;;;;;;;;;13.65;54.64;98264.56;5150721;27;19926;-60
2022/05/15 03:31:48;;;;;;;;;;;;;;;13.62;54.75;98268.72;5156184;27;20014;-59
2022/05/15 03:34:16;;;;;;;;;;;;;;;13.69;54.63;98276.44;5133068;27;20381;-59
2022/05/15 03:36:46;;;;;;;;;;;;;;;13.75;54.31;98280.63;5132062;27;19980;-60
2022/05/15 03:39:15;;;;;;;;;;;;;;;13.80;54.10;98266.81;5134041;27;19923;-60
2022/05/15 03:41:46;;;;;;;;;;;;;;;13.75;54.32;98280.63;5126468;27;19920;-60
2022/05/15 03:44:15;;;;;;;;;;;;;;;13.69;54.34;98273.69;5134036;27;19923;-59
2022/05/15 03:46:44;;;;;;;;;;;;;;;13.69;54.40;98276.44;5145461;27;19927;-60
2022/05/15 03:49:13;;;;;;;;;;;;;;;13.64;54.56;98280.16;5143468;27;20416;-59
2022/05/15 03:51:43;;;;;;;;;;;;;;;13.44;55.00;98278.84;5150620;27;20405;-57
2022/05/15 03:57:04;;;;;;;;;;;;;;;13.49;54.98;98281.44;5140137;27;20350;-57
2022/05/15 03:59:33;;;;;;;;;;;;;;;13.35;55.17;98283.50;5163090;27;20021;-59
2022/05/15 04:02:01;;;;;;;;;;;;;;;13.28;55.57;98283.19;5150464;27;19919;-60
2022/05/15 04:04:31;;;;;;;;;;;;;;;13.36;55.40;98279.66;5146621;27;19927;-59
2022/05/15 04:06:59;;;;;;;;;;;;;;;13.21;55.58;98280.94;5142831;27;19918;-60
2022/05/15 04:09:53;;;;;;;;;;;;;;;13.28;55.49;98275.00;5147803;27;19922;-60
2022/05/15 04:12:22;;;;;;;;;;;;;;;13.31;55.71;98282.53;5154727;27;19965;-59
2022/05/15 04:14:51;;;;;;;;;;;;;;;13.38;55.42;98277.41;5144717;27;19963;-60
2022/05/15 04:17:26;;;;;;;;;;;;;;;13.51;54.84;98281.91;5135192;27;19919;-60
2022/05/15 04:19:54;;;;;;;;;;;;;;;13.51;54.91;98279.16;5143368;27;19919;-59
2022/05/15 04:22:22;;;;;;;;;;;;;;;13.46;55.22;98290.25;5142489;27;19918;-59
2022/05/15 04:24:50;;;;;;;;;;;;;;;13.60;55.43;98290.09;5142123;27;19930;-61
2022/05/15 04:27:43;;;;;;;;;;;;;;;13.44;55.68;98291.72;5134018;27;19919;-59
2022/05/15 04:30:14;;;;;;;;;;;;;;;13.46;56.19;98278.53;5126883;27;20307;-58
2022/05/15 04:32:42;;;;;;;;;;;;;;;13.48;56.56;98282.56;5136200;27;20483;-60
2022/05/15 04:35:10;;;;;;;;;;;;;;;13.51;56.40;98284.63;5131810;27;19919;-59
2022/05/15 04:37:39;;;;;;;;;;;;;;;13.67;55.69;98281.41;5140955;27;19966;-59
2022/05/15 04:40:08;;;;;;;;;;;;;;;13.65;56.02;98286.41;5158611;27;20339;-59
2022/05/15 04:43:00;;;;;;;;;;;;;;;13.79;55.55;98293.28;5156033;27;19923;-58
2022/05/15 04:45:30;;;;;;;;;;;;;;;13.86;55.12;98290.88;5136758;27;19924;-59
2022/05/15 04:47:58;;;;;;;;;;;;;;;13.87;54.67;98295.22;5158354;27;19918;-58
2022/05/15 04:50:26;;;;;;;;;;;;;;;13.75;54.45;98297.81;5154449;27;19974;-58
2022/05/15 04:52:54;;;;;;;;;;;;;;;13.62;55.33;98304.22;5139317;27;19918;-59
2022/05/15 04:55:23;;;;;;;;;;;;;;;13.65;55.02;98302.78;5150444;27;20002;-56
2022/05/15 04:57:51;;;;;;;;;;;;;;;13.84;54.93;98297.78;5151663;27;19919;-58
2022/05/15 05:00:19;;;;;;;;;;;;;;;13.82;55.16;98303.56;5151141;27;19919;-58
2022/05/15 05:02:49;;;;;;;;;;;;;;;13.79;54.42;98303.41;5154927;27;19927;-57
2022/05/15 05:05:17;;;;;;;;;;;;;;;13.84;54.52;98309.50;5160164;27;20699;-58
2022/05/15 05:07:45;;;;;;;;;;;;;;;14.01;54.21;98316.06;5160274;27;19919;-58
2022/05/15 05:10:13;;;;;;;;;;;;;;;13.99;53.91;98308.22;5160167;27;19927;-59
2022/05/15 05:12:47;;;;;;;;;;;;;;;13.79;54.25;98303.41;5156307;27;20387;-59
2022/05/15 05:15:15;;;;;;;;;;;;;;;13.77;54.66;98308.41;5168029;27;20013;-58
2022/05/15 05:17:44;;;;;;;;;;;;;;;13.83;54.47;98313.38;5149693;27;19961;-58
2022/05/15 05:20:14;;;;;;;;;;;;;;;13.95;54.68;98311.91;5146769;27;20135;-58
2022/05/15 05:22:42;;;;;;;;;;;;;;;14.02;54.21;98317.69;5154107;27;20224;-59
2022/05/15 05:25:10;;;;;;;;;;;;;;;14.19;54.00;98322.31;5165315;27;19935;-58
2022/05/15 05:30:30;;;;;;;;;;;;;;;14.41;53.39;98319.38;5150469;27;20399;-59
2022/05/15 05:32:58;;;;;;;;;;;;;;;14.36;53.25;98308.59;5149560;27;19929;-59
2022/05/15 05:35:28;;;;;;;;;;;;;;;14.57;53.03;98317.72;5152176;27;19963;-58
2022/05/15 05:37:56;;;;;;;;;;;;;;;14.71;52.51;98327.66;5139803;27;20426;-58
2022/05/15 05:40:24;;;;;;;;;;;;;;;14.75;52.75;98321.19;5150017;27;20315;-58
2022/05/15 05:42:51;;;;;;;;;;;;;;;14.87;52.45;98321.31;5141190;27;19925;-58
2022/05/15 05:48:11;;;;;;;;;;;;;;;15.03;51.79;98321.56;5149353;27;19919;-58
2022/05/15 05:50:41;;;;;;;;;;;;;;;15.13;51.55;98323.13;5151369;27;19980;-59
2022/05/15 05:56:01;;;;;;;;;;;;;;;14.91;51.86;98326.91;5140526;27;19923;-59
2022/05/15 05:58:31;;;;;;;;;;;;;;;14.94;51.91;98329.00;5130316;27;19925;-58
2022/05/15 06:01:06;;;;;;;;;;;;;;;15.17;51.40;98330.31;5151109;27;19919;-58
2022/05/15 06:06:46;;;;;;;;;;;;;;;15.46;50.43;98342.38;5155694;27;19926;-58
2022/05/15 06:09:14;;;;;;;;;;;;;;;15.61;50.42;98339.06;5162883;27;19970;-59
2022/05/15 06:11:42;;;;;;;;;;;;;;;15.85;50.05;98332.91;5134134;27;20228;-55
2022/05/15 06:14:10;;;;;;;;;;;;;;;15.91;49.63;98337.06;5140556;27;19931;-59
2022/05/15 06:16:38;;;;;;;;;;;;;;;15.93;49.43;98332.06;5140564;27;19979;-58
2022/05/15 06:19:06;;;;;;;;;;;;;;;16.08;49.05;98327.88;5143919;27;19919;-58
2022/05/15 06:21:34;;;;;;;;;;;;;;;16.33;48.93;98330.69;5159916;27;19919;-58
2022/05/15 06:24:30;;;;;;;;;;;;;;;16.27;48.50;98332.06;5141130;27;19923;-55
2022/05/15 06:26:58;;;;;;;;;;;;;;;16.39;48.61;98329.34;5147383;27;19923;-58
2022/05/15 06:29:33;;;;;;;;;;;;;;;16.58;48.40;98321.38;5156091;27;19923;-61
2022/05/15 06:32:01;;;;;;;;;;;;;;;16.84;47.49;98323.06;5147366;27;19920;-60
2022/05/15 06:34:29;;;;;;;;;;;;;;;17.04;47.49;98324.88;5139167;27;19927;-60
2022/05/15 06:36:57;;;;;;;;;;;;;;;17.09;47.70;98316.41;5142201;27;20013;-60
2022/05/15 06:39:26;;;;;;;;;;;;;;;16.99;47.48;98325.09;5162470;27;20007;-60
2022/05/15 06:42:01;;;;;;;;;;;;;;;16.98;47.39;98323.50;5146279;27;19928;-60
2022/05/15 06:44:40;;;;;;;;;;;;;;;17.09;47.37;98312.84;5118108;27;19980;-59
2022/05/15 06:47:34;;;;;;;;;;;;;;;17.34;46.71;98310.88;5145871;27;20419;-61
2022/05/15 06:50:02;;;;;;;;;;;;;;;17.51;46.77;98313.38;5154780;27;20406;-58
2022/05/15 06:52:30;;;;;;;;;;;;;;;17.59;46.77;98308.91;5140059;27;19919;-59
2022/05/15 06:55:00;;;;;;;;;;;;;;;17.68;45.78;98315.84;5141054;27;20439;-60
2022/05/15 06:57:33;;;;;;;;;;;;;;;17.71;46.53;98323.38;5150717;27;19922;-60
2022/05/15 07:00:03;;;;;;;;;;;;;;;18.06;45.07;98323.66;5146672;27;19964;-60
2022/05/15 07:02:31;;;;;;;;;;;;;;;18.03;45.54;98320.78;5149869;27;19992;-59
2022/05/15 07:05:24;;;;;;;;;;;;;;;18.40;45.09;98317.84;5150762;27;19919;-60
2022/05/15 07:07:53;;;;;;;;;;;;;;;18.27;44.79;98322.63;5151891;27;19919;-60
2022/05/15 07:10:22;;;;;;;;;;;;;;;17.90;45.68;98317.31;5124012;27;19991;-60
2022/05/15 07:12:50;;;;;;;;;;;;;;;17.98;45.44;98321.03;5157907;27;19931;-61
2022/05/15 07:15:18;;;;;;;;;;;;;;;18.29;45.06;98320.31;5151493;27;19923;-61
2022/05/15 07:17:46;;;;;;;;;;;;;;;18.36;45.11;98325.22;5138717;27;19954;-58
2022/05/15 07:20:14;;;;;;;;;;;;;;;18.57;44.62;98323.03;5145054;27;19919;-61
2022/05/15 07:22:42;;;;;;;;;;;;;;;18.81;44.41;98322.09;5146167;27;20383;-61
2022/05/15 07:25:11;;;;;;;;;;;;;;;18.90;44.98;98325.44;5150399;27;20050;-60
2022/05/15 07:27:40;;;;;;;;;;;;;;;19.08;44.23;98315.69;5149816;27;19927;-61
2022/05/15 07:30:08;;;;;;;;;;;;;;;18.87;43.77;98322.63;5148915;27;19971;-61
2022/05/15 07:33:04;;;;;;;;;;;;;;;18.79;43.85;98313.38;5145507;27;20413;-60
2022/05/15 07:35:32;;;;;;;;;;;;;;;19.01;44.13;98309.19;5159224;27;19941;-58
2022/05/15 07:38:00;;;;;;;;;;;;;;;19.08;43.81;98314.88;5155076;27;20385;-59
2022/05/15 07:40:29;;;;;;;;;;;;;;;19.05;43.06;98316.38;5150086;27;19973;-59
2022/05/15 07:42:58;;;;;;;;;;;;;;;19.16;43.30;98322.13;5147340;27;20407;-59
2022/05/15 07:45:26;;;;;;;;;;;;;;;19.24;43.60;98314.84;5148189;27;20026;-58
2022/05/15 07:47:57;;;;;;;;;;;;;;;19.33;43.16;98313.50;5143557;27;19920;-59
2022/05/15 07:50:25;;;;;;;;;;;;;;;19.54;42.66;98315.13;5153644;27;19919;-60
2022/05/15 07:52:53;;;;;;;;;;;;;;;19.51;42.71;98307.59;5141600;27;19980;-58
2022/05/15 07:55:21;;;;;;;;;;;;;;;19.83;42.41;98306.31;5148196;27;20434;-60
2022/05/15 07:57:49;;;;;;;;;;;;;;;19.85;42.26;98312.25;5136220;27;19919;-59
2022/05/15 08:00:20;;;;;;;;;;;;;;;19.76;42.40;98308.13;5145967;27;19923;-59
2022/05/15 08:03:15;;;;;;;;;;;;;;;20.03;41.88;98309.88;5145560;27;20025;-59
2022/05/15 08:08:30;;;;;;;;;;;;;;;20.28;40.99;98304.03;5140283;27;20303;-59
2022/05/15 08:11:26;;;;;;;;;;;;;;;20.48;40.70;98299.31;5134345;27;19920;-56
2022/05/15 08:13:54;;;;;;;;;;;;;;;20.62;40.50;98311.41;5143182;27;19919;-59
2022/05/15 08:25:04;;;;;;;;;;;;;;;20.71;40.23;98302.84;5067552;28;20277;-59
2022/05/15 08:27:31;;;;;;;;;;;;;;;20.48;40.47;98299.31;5127856;27;19919;-60
2022/05/15 08:30:00;;;;;;;;;;;;;;;20.48;40.38;98296.53;5159367;27;20386;-59
2022/05/15 08:32:29;;;;;;;;;;;;;;;20.67;40.05;98296.50;5152270;27;20351;-59
2022/05/15 08:34:57;;;;;;;;;;;;;;;20.90;39.83;98294.50;5148183;27;20013;-59
2022/05/15 08:37:25;;;;;;;;;;;;;;;20.96;39.92;98291.44;5140072;27;20315;-59
2022/05/15 08:39:53;;;;;;;;;;;;;;;21.03;39.75;98291.53;5146657;27;19919;-59
2022/05/15 08:42:22;;;;;;;;;;;;;;;21.21;39.34;98291.81;5140529;27;19922;-60
2022/05/15 08:44:51;;;;;;;;;;;;;;;21.38;38.68;98292.09;5144887;27;19965;-58
2022/05/15 08:47:22;;;;;;;;;;;;;;;21.42;39.25;98292.94;5162170;27;19929;-58
2022/05/15 08:49:52;;;;;;;;;;;;;;;21.59;38.79;98288.81;5147871;27;19981;-58
2022/05/15 08:52:22;;;;;;;;;;;;;;;21.56;38.85;98289.56;5149437;27;20412;-58
2022/05/15 08:54:54;;;;;;;;;;;;;;;21.47;38.42;98291.03;5156424;27;19919;-59
2022/05/15 08:57:23;;;;;;;;;;;;;;;21.72;37.97;98289.38;5141799;27;19996;-57
2022/05/15 08:59:53;;;;;;;;;;;;;;;21.79;38.06;98283.94;5158590;27;19926;-58
2022/05/15 09:02:21;;;;;;;;;;;;;;;21.97;37.76;98290.47;5151977;27;19919;-56
2022/05/15 09:04:56;;;;;;;;;;;;;;;21.95;37.61;98284.53;5154552;27;20013;-60
2022/05/15 09:07:24;;;;;;;;;;;;;;;;;;5160915;27;20025;-59
2022/05/15 09:10:23;;;;;;;;;;;;;;;22.10;32.94;98281.91;5137832;27;20044;-59
2022/05/15 09:12:58;;;;;;;;;;;;;;;22.15;33.77;98287.13;5155203;27;19931;-59
2022/05/15 09:15:28;;;;;;;;;;;;;;;22.39;34.83;98283.84;5139168;27;20060;-59
2022/05/15 09:18:00;;;;;;;;;;;;;;;22.19;33.18;98290.75;5134703;27;19928;-59
2022/05/15 09:20:45;;;;;;;;;;;;;;;22.27;30.53;98284.13;5145777;27;19931;-58
2022/05/15 09:23:17;;;;;;;;;;;;;;;22.19;30.16;98277.69;5137533;27;20044;-59
2022/05/15 09:25:50;;;;;;;;;;;;;;;22.43;29.86;98281.91;5139948;27;20371;-60
2022/05/15 09:28:18;;;;;;;;;;;;;;;22.39;30.64;98280.28;5139279;27;19927;-58
2022/05/15 09:30:47;;;;;;;;;;;;;;;22.28;32.32;98273.84;5138459;27;19955;-58
2022/05/15 09:33:23;;;;;;;;;;;;;;;22.29;32.66;98270.69;5137063;27;19926;-59
2022/05/15 09:35:53;;;;;;;;;;;;;;;22.27;31.43;98266.72;5135225;27;19958;-59
2022/05/15 09:38:46;;;;;;;;;;;;;;;22.24;30.17;98273.81;5154441;27;19925;-59
2022/05/15 09:44:03;;;;;;;;;;;;;;;22.52;29.51;98264.19;5139567;27;19923;-59
2022/05/15 09:46:31;;;;;;;;;;;;;;;22.54;29.59;98264.59;5134975;27;19919;-58
2022/05/15 09:49:01;;;;;;;;;;;;;;;22.56;30.45;98270.53;5146827;27;20169;-59
2022/05/15 09:51:42;;;;;;;;;;;;;;;22.73;30.45;98275.44;5142561;27;19919;-59
2022/05/15 09:57:11;;;;;;;;;;;;;;;22.87;30.68;98267.25;5145956;27;19919;-57
2022/05/15 10:00:05;;;;;;;;;;;;;;;22.56;29.68;98259.47;5160000;27;19919;-60
2022/05/15 10:02:44;;;;;;;;;;;;;;;22.47;30.05;98257.81;5154307;27;22354;-60
2022/05/15 10:05:16;;;;;;;;;;;;;;;22.63;30.06;98253.97;5150041;27;20670;-60
2022/05/15 10:07:52;;;;;;;;;;;;;;;22.64;30.81;98256.41;5153445;27;19922;-59
2022/05/15 10:10:22;;;;;;;;;;;;;;;22.83;30.88;98258.09;5120259;27;20029;-60
2022/05/15 10:12:51;;;;;;;;;;;;;;;22.77;30.65;98251.34;5150590;27;20351;-59
2022/05/15 10:15:19;;;;;;;;;;;;;;;22.79;30.45;98259.25;5149481;27;19942;-59
2022/05/15 10:17:51;;;;;;;;;;;;;;;22.94;30.12;98247.94;5129195;27;19919;-60
2022/05/15 10:20:21;;;;;;;;;;;;;;;23.11;30.51;98252.00;5152374;27;19926;-60
2022/05/15 10:22:53;;;;;;;;;;;;;;;23.06;30.09;98248.78;5137244;27;19964;-61
2022/05/15 10:25:21;;;;;;;;;;;;;;;22.96;31.63;98239.25;5153706;27;20050;-62
2022/05/15 10:27:50;;;;;;;;;;;;;;;22.98;32.56;98237.69;5155721;27;20251;-61
2022/05/15 10:30:19;;;;;;;;;;;;;;;23.24;31.62;98233.88;5150566;27;19980;-66
2022/05/15 10:32:50;;;;;;;;;;;;;;;23.03;31.25;98244.84;5139961;27;19925;-60
2022/05/15 10:35:19;;;;;;;;;;;;;;;23.30;29.96;98226.00;5151085;27;19923;-58
2022/05/15 10:37:54;;;;;;;;;;;;;;;23.03;30.57;98227.41;5153696;27;19981;-60
2022/05/15 10:40:23;;;;;;;;;;;;;;;23.17;31.29;98222.75;5149943;27;19919;-59
2022/05/15 10:42:58;;;;;;;;;;;;;;;23.08;31.66;98224.28;5119429;27;19971;-58
2022/05/15 10:45:30;;;;;;;;;;;;;;;23.08;30.46;98218.75;5142289;27;19927;-58
2022/05/15 10:48:02;;;;;;;;;;;;;;;23.03;30.29;98217.13;5141777;27;19919;-60
2022/05/15 10:50:31;;;;;;;;;;;;;;;23.32;30.48;98204.19;5155323;27;19923;-60
2022/05/15 10:58:47;;;;;;;;;;;;;;;23.43;30.29;98207.03;5142447;27;20379;-59
2022/05/15 11:01:17;;;;;;;;;;;;;;;23.24;29.96;98197.06;5138464;27;19919;-59
2022/05/15 11:03:51;;;;;;;;;;;;;;;23.32;29.31;98195.88;5131629;27;19972;-59
2022/05/15 11:06:40;;;;;;;;;;;;;;;23.18;29.76;98188.31;5134595;27;19927;-58
2022/05/15 11:09:11;;;;;;;;;;;;;;;23.19;31.13;98186.34;5134715;27;19923;-59
2022/05/15 11:12:21;;;;;;;;;;;;;;;23.32;30.25;98184.81;5137017;27;19925;-59
2022/05/15 11:14:52;;;;;;;;;;;;;;;23.43;30.13;98191.19;5133066;27;20291;-59
2022/05/15 11:17:27;;;;;;;;;;;;;;;23.67;29.51;98172.28;5152352;27;19923;-59
2022/05/15 11:19:57;;;;;;;;;;;;;;;23.56;29.68;98177.00;5137114;27;20275;-57
2022/05/15 11:22:27;;;;;;;;;;;;;;;23.67;29.08;98183.41;5134939;27;19979;-57
2022/05/15 11:24:59;;;;;;;;;;;;;;;23.64;29.46;98173.06;5121348;27;19918;-60
2022/05/15 11:27:28;;;;;;;;;;;;;;;23.89;29.39;98162.84;5142407;27;19923;-59
2022/05/15 11:29:57;;;;;;;;;;;;;;;23.87;30.54;98170.78;5148784;27;20158;-61
2022/05/15 11:32:31;;;;;;;;;;;;;;;23.74;28.77;98177.84;5094231;27;19919;-61
2022/05/15 11:35:05;;;;;;;;;;;;;;;23.70;28.67;98171.50;5143046;27;19988;-60
2022/05/15 11:37:42;;;;;;;;;;;;;;;23.46;28.52;98173.00;5156242;27;19919;-61
2022/05/15 11:40:13;;;;;;;;;;;;;;;23.68;29.48;98171.91;5151205;27;20345;-61
2022/05/15 11:42:45;;;;;;;;;;;;;;;23.65;28.44;98164.38;5153091;27;19929;-61
2022/05/15 11:45:38;;;;;;;;;;;;;;;23.71;28.80;98167.56;5164889;27;19953;-61
2022/05/15 11:48:14;;;;;;;;;;;;;;;23.66;28.89;98156.84;5150676;27;19919;-61
2022/05/15 11:50:44;;;;;;;;;;;;;;;23.72;28.13;98153.28;5159964;27;20263;-61
2022/05/15 11:53:14;;;;;;;;;;;;;;;23.67;29.03;98155.66;5150405;27;19926;-62
2022/05/15 11:55:47;;;;;;;;;;;;;;;23.82;27.44;98148.16;5154226;27;19978;-62
2022/05/15 11:58:34;;;;;;;;;;;;;;;23.67;28.40;98150.91;5139612;27;19923;-61
2022/05/15 12:01:13;;;;;;;;;;;;;;;23.92;28.18;98153.72;5148962;27;19923;-60
2022/05/15 12:07:15;;;;;;;;;;;;;;;24.11;28.17;98143.44;5138700;27;19925;-62
2022/05/15 12:09:50;;;;;;;;;;;;;;;24.08;27.59;98141.47;5158444;27;20282;-57
2022/05/15 12:12:37;;;;;;;;;;;;;;;24.22;28.06;98136.69;5153041;27;19923;-60
2022/05/15 12:15:08;;;;;;;;;;;;;;;24.19;27.86;98139.47;5146231;27;19964;-58
2022/05/15 12:17:38;;;;;;;;;;;;;;;24.04;28.08;98131.16;5154554;27;20065;-59
2022/05/15 12:20:30;;;;;;;;;;;;;;;24.12;27.50;98133.91;5160376;27;19923;-59
2022/05/15 12:23:01;;;;;;;;;;;;;;;24.31;28.61;98134.31;5156449;27;20350;-60
2022/05/15 12:25:31;;;;;;;;;;;;;;;24.24;27.49;98134.31;5155687;27;19951;-61
2022/05/15 12:30:44;;;;;;;;;;;;;;;24.74;26.66;98125.97;5139612;27;20382;-58
2022/05/15 12:33:13;;;;;;;;;;;;;;;24.54;27.66;98124.81;5143615;27;19996;-58
2022/05/15 12:35:43;;;;;;;;;;;;;;;24.55;28.93;98129.16;5159983;27;19919;-58
2022/05/15 12:38:14;;;;;;;;;;;;;;;24.63;27.84;98125.19;5145205;27;20273;-61
2022/05/15 12:40:44;;;;;;;;;;;;;;;24.60;29.21;98125.19;5156007;27;20036;-59
2022/05/15 12:43:18;;;;;;;;;;;;;;;24.71;30.61;98123.19;5160784;27;19952;-59
2022/05/15 12:45:53;;;;;;;;;;;;;;;24.65;27.44;98124.78;5155808;27;19962;-59
2022/05/15 12:48:21;;;;;;;;;;;;;;;24.55;26.83;98113.31;5151918;27;19926;-59
2022/05/15 12:50:50;;;;;;;;;;;;;;;24.82;27.58;98112.84;5160847;27;20001;-59
2022/05/15 12:53:19;;;;;;;;;;;;;;;24.74;26.99;98122.41;5146353;27;19923;-59
2022/05/15 12:55:50;;;;;;;;;;;;;;;24.55;25.92;98123.59;5148186;27;19919;-58
2022/05/15 12:58:34;;;;;;;;;;;;;;;24.56;28.10;98117.66;5134898;27;19942;-59
2022/05/15 13:01:06;;;;;;;;;;;;;;;24.55;27.28;98110.53;5146676;27;19935;-58
2022/05/15 13:04:02;;;;;;;;;;;;;;;24.54;30.23;98110.91;5142709;27;20275;-60
2022/05/15 13:06:36;;;;;;;;;;;;;;;24.47;26.52;98102.59;5147517;27;20263;-61
2022/05/15 13:12:21;;;;;;;;;;;;;;;24.48;27.19;98090.31;5165454;27;20291;-60
2022/05/15 13:15:18;;;;;;;;;;;;;;;24.53;26.82;98096.25;5160267;27;19927;-58
2022/05/15 13:17:48;;;;;;;;;;;;;;;24.61;27.32;98085.09;5149280;27;19931;-62
2022/05/15 13:23:11;;;;;;;;;;;;;;;24.45;27.06;98085.53;5144185;27;19930;-55
2022/05/15 13:25:40;;;;;;;;;;;;;;;24.54;26.33;98083.94;5155617;27;20413;-61
2022/05/15 13:28:08;;;;;;;;;;;;;;;24.56;26.42;98078.78;5152589;27;19924;-60
2022/05/15 13:30:36;;;;;;;;;;;;;;;24.38;26.76;98082.78;5154003;27;20314;-61
2022/05/15 13:33:06;;;;;;;;;;;;;;;24.47;26.71;98085.94;5141023;27;20387;-56
2022/05/15 13:35:34;;;;;;;;;;;;;;;24.63;26.86;98079.97;5151608;27;19929;-58
2022/05/15 13:38:13;;;;;;;;;;;;;;;24.39;27.00;98079.59;5147778;27;20001;-61
2022/05/15 13:43:32;;;;;;;;;;;;;;;24.29;26.47;98078.41;5151086;27;20422;-62
2022/05/15 13:46:00;;;;;;;;;;;;;;;24.24;26.63;98076.03;5157250;27;19919;-62
2022/05/15 13:48:47;;;;;;;;;;;;;;;24.33;28.76;98081.16;5146772;27;19920;-61
2022/05/15 13:51:29;;;;;;;;;;;;;;;24.36;27.91;98071.28;5156623;27;19973;-61
2022/05/15 13:54:06;;;;;;;;;;;;;;;24.30;28.98;98071.66;5155546;27;19918;-62
2022/05/15 13:56:34;;;;;;;;;;;;;;;24.17;27.61;98073.25;5149464;27;19919;-62
2022/05/15 13:59:02;;;;;;;;;;;;;;;24.22;27.09;98069.28;5148759;27;19963;-62
2022/05/15 14:01:31;;;;;;;;;;;;;;;24.20;26.52;98063.34;5150045;27;19941;-61
2022/05/15 14:04:25;;;;;;;;;;;;;;;24.17;26.45;98053.03;5149736;27;20373;-60
2022/05/15 14:06:58;;;;;;;;;;;;;;;24.18;27.14;98058.19;5145586;27;20356;-57
2022/05/15 14:12:40;;;;;;;;;;;;;;;24.44;27.98;98054.19;5161420;27;20311;-60